Hovedside
METAR-TAF:

METAR-TAF

Lufthavner :

Talara, Peru

breddegrad: 04-34S, lengdegrad: 081-15W, høyde over havet: 85 m

Gjeldene værobservasjon

Denne rapporten ble laget for 16 minutter siden, klokken 15:00 UTC
Vind 12 kt fra Sør-sørøst
Temperatur 30°C
Luftfuktighet 52%
Trykk 1012 hPa
Sikt 10 km eller mer
ingen skyer under 1500 m og ingen bygeskyer

METAR: SPYL 041500Z 15012KT CAVOK 30/19 Q1012 RMK BIRD HAZARD RWY 17/35 PP000

Tid: 10:16 (15:16 UTC)

Varsel

Denne rapporten ble laget for 4 timer og 16 minutter siden, klokken 11:00 UTC
Varsel gyldig fra 04. klokken 12 UTC til 05. klokken 12 UTC
Vind 8 kt fra Sør-sørøst
Sikt 10 km eller mer
ingen skyer under 1500 m og ingen bygeskyer
Blir
fra 04. klokken 17 UTC til 04. klokken 19 UTC
Vind 13 kt fra Sørvest

TAF: SPYL 041100Z 0412/0512 15008KT CAVOK TX32/0419Z TN21/0511Z BECMG 0417/0419 22013KT

Værobservasjoner og værvarsel for over 4000 flyplasser (METAR- og TAF-rapporter).

Tilgjengelige stasjoner er representert av de røde og gule prikkene på kartet.

Hold musepekeren over prikken for å se navnet på stasjonen.

Klikk så for å se værobservasjoner og -varsler.

For å forandre kartet kan du klikke på den grønne knappen med svart kryss for å zoome inn, på den grønne knappen med strek for å zoome ut, eller på de grønne pilene for å se tilstøtende kart.


METAR-TAF: